Home   Weather   USA   Danville   Past weeks
Flag for USA

Past Weather in Danville, Kentucky, USA — Yesterday and Last 2 Weeks

Currently: 82 °F. Sunny. (Weather station: Somerset Weather Reporting Station, USA). See more current weather

Past Weather in Danville — Graph

°F

Danville Temperature Yesterday

Maximum temperature yesterday: 77 °F (at 5:15 pm)
Minimum temperature yesterday: 50 °F (at 4:55 am)
Average temperature yesterday: 63 °F

High & Low Weather Summary for the Past Weeks

 TemperatureHumidityPressure
High86 °F (Jun 4, 1:55 pm)100% (May 29, 6:15 am)30.27 "Hg (May 29, 6:15 am)
Low50 °F (May 30, 4:35 am)30% (Jun 7, 3:55 pm)29.70 "Hg (Jun 6, 3:55 am)
Average69 °F75%29.96 "Hg
* Reported May 28 4:35 pm — Jun 12 4:35 pm, Danville. Weather by CustomWeather, © 2024

Note: Actual official high and low records may vary slightly from our data, if they occured in-between our weather recording intervals... More about our weather records

Danville Weather History for the Previous 24 Hours

Scroll right to see more
 ConditionsComfort  
Time TempWeatherWind HumidityBarometerVisibility
4:35 pm
Wed, Jun 12
81 °FSunny.No wind34%30.00 "Hg10 mi
3:55 pm81 °FSunny.5 mph39%30.01 "Hg10 mi
3:35 pm81 °FSunny.6 mph37%30.01 "Hg10 mi
3:15 pm79 °FSunny.3 mph39%30.02 "Hg10 mi
2:55 pm81 °FSunny.3 mph37%30.02 "Hg10 mi
2:35 pm79 °FSunny.No wind42%30.02 "Hg10 mi
1:55 pm79 °FSunny.5 mph42%30.03 "Hg10 mi
1:15 pm77 °FSunny.5 mph47%30.04 "Hg10 mi
12:55 pm77 °FSunny.No wind44%30.05 "Hg10 mi
12:35 pm77 °FSunny.6 mph44%30.05 "Hg10 mi
12:15 pm75 °FSunny.6 mph47%30.05 "Hg10 mi
11:55 am75 °FSunny.8 mph47%30.06 "Hg10 mi
11:35 am75 °FSunny.8 mph47%30.05 "Hg10 mi
11:15 am73 °FSunny.5 mph53%30.06 "Hg10 mi
10:55 am72 °FSunny.3 mph61%30.06 "Hg10 mi
10:15 am70 °FSunny.No wind69%30.06 "Hg10 mi
9:15 am64 °FSunny.No wind78%30.06 "Hg10 mi
8:55 am63 °FSunny.No wind83%30.05 "Hg10 mi
8:35 am59 °FSunny.No wind88%30.05 "Hg10 mi
7:15 am52 °FSunny.No wind100%30.05 "Hg9 mi
6:55 am52 °FSunny.No wind100%30.04 "Hg9 mi
6:35 am52 °FSunny.No wind100%30.04 "Hg9 mi
5:55 am54 °FClear.No wind100%30.02 "Hg10 mi
5:35 am54 °FClear.No wind100%30.02 "Hg10 mi
5:15 am54 °FClear.No wind100%30.02 "Hg10 mi
4:55 am54 °FClear.5 mph100%30.02 "Hg10 mi
4:15 am54 °FClear.No wind100%30.00 "Hg10 mi
3:35 am54 °FClear.No wind100%30.00 "Hg10 mi
3:15 am54 °FClear.No wind100%30.00 "Hg10 mi
2:35 am55 °FClear.No wind100%30.01 "Hg10 mi
2:15 am54 °FClear.No wind100%30.01 "Hg10 mi
1:55 am55 °FClear.No wind100%30.01 "Hg10 mi
1:35 am55 °FClear.No wind100%30.02 "Hg10 mi
12:55 am57 °FClear.No wind94%30.03 "Hg10 mi
12:15 am59 °FClear.No wind88%30.01 "Hg10 mi
11:55 pm
Tue, Jun 11
59 °FClear.No wind88%30.01 "Hg10 mi
11:35 pm59 °FClear.No wind88%30.01 "Hg10 mi
10:55 pm59 °FClear.No wind88%30.00 "Hg10 mi
10:15 pm63 °FClear.No wind77%30.00 "Hg10 mi
9:55 pm64 °FClear.No wind73%29.98 "Hg10 mi
9:15 pm68 °FClear.3 mph56%29.98 "Hg10 mi
8:55 pm70 °FSunny.5 mph50%29.98 "Hg10 mi
8:35 pm72 °FSunny.6 mph47%29.97 "Hg10 mi
7:55 pm73 °FSunny.6 mph47%29.96 "Hg10 mi
7:35 pm73 °FSunny.3 mph44%29.96 "Hg10 mi
7:15 pm75 °FSunny.3 mph41%29.96 "Hg10 mi
6:35 pm75 °FSunny.3 mph44%29.96 "Hg10 mi
6:15 pm75 °FSunny.3 mph41%29.96 "Hg10 mi
Weather by CustomWeather, © 2024

See weather overview